Time;durP1;ratioP1;P1;durP2;ratioP2;P2;SDS_P1;SDS_P2;PMS_P1;PMS_P2;Temp;Humidity;BMP_temperature;BMP_pressure;BME280_temperature;BME280_humidity;BME280_pressure;Samples;Min_cycle;Max_cycle;Signal;HPM_P1;HPM_P2
2021/12/02 00:00:56;;;;;;;1.30;0.40;;;;;;;5.18;85.58;100067.06;4993772;28;96867;-34
2021/12/02 00:03:22;;;;;;;0.13;0.05;;;;;;;5.19;85.27;100056.22;4994233;28;97366;-34
2021/12/02 00:05:47;;;;;;;0.00;0.00;;;;;;;5.10;85.85;100056.69;4994843;28;97619;-35
2021/12/02 00:08:13;;;;;;;0.98;0.28;;;;;;;5.17;85.79;100062.63;4995170;28;96662;-34
2021/12/02 00:10:40;;;;;;;0.30;0.20;;;;;;;5.13;85.66;100067.31;4993532;28;96830;-34
2021/12/02 00:13:07;;;;;;;0.00;0.00;;;;;;;5.15;85.37;100077.94;4993052;28;100685;-35
2021/12/02 00:15:41;;;;;;;4.07;0.17;;;;;;;5.10;85.26;100072.81;4992913;28;100857;-35
2021/12/02 00:18:29;;;;;;;1.15;0.30;;;;;;;5.10;85.15;100084.44;4993567;28;97007;-34
2021/12/02 00:21:04;;;;;;;1.13;0.40;;;;;;;5.07;85.10;100073.84;4994997;28;96841;-34
2021/12/02 00:23:54;;;;;;;0.00;0.00;;;;;;;5.10;84.69;100094.28;4994569;28;97999;-34
2021/12/02 00:26:21;;;;;;;0.20;0.20;;;;;;;5.04;84.73;100082.06;4994351;28;97862;-35
2021/12/02 00:28:56;;;;;;;0.25;0.25;;;;;;;5.02;84.31;100078.56;4992817;28;96615;-34
2021/12/02 00:31:23;;;;;;;1.15;0.43;;;;;;;4.98;84.48;100073.44;4993347;28;96862;-34
2021/12/02 00:33:54;;;;;;;0.05;0.05;;;;;;;4.93;82.77;100070.13;4992952;28;100120;-34
2021/12/02 00:36:22;;;;;;;0.00;0.00;;;;;;;4.93;83.32;100071.00;4992861;28;100871;-35
2021/12/02 00:38:48;;;;;;;2.45;0.10;;;;;;;4.94;83.50;100078.09;4993127;28;96689;-34
2021/12/02 00:41:16;;;;;;;3.28;0.15;;;;;;;4.87;82.48;100079.38;4994533;28;96761;-34
2021/12/02 00:43:42;;;;;;;0.00;0.00;;;;;;;4.93;83.20;100087.09;4992796;28;101080;-34
2021/12/02 00:46:11;;;;;;;0.00;0.00;;;;;;;4.81;82.96;100072.47;4994409;28;99417;-35
2021/12/02 00:48:37;;;;;;;0.00;0.00;;;;;;;4.83;83.21;100062.53;4993002;28;96496;-35
2021/12/02 00:51:04;;;;;;;0.00;0.00;;;;;;;4.84;83.13;100060.75;4993046;28;96803;-35
2021/12/02 00:53:32;;;;;;;0.00;0.00;;;;;;;4.83;83.21;100057.19;4991923;28;103307;-35
2021/12/02 00:56:03;;;;;;;0.00;0.00;;;;;;;4.82;83.53;100052.78;4992449;28;103684;-35
2021/12/02 00:58:30;;;;;;;0.88;0.10;;;;;;;4.75;83.11;100047.78;4992891;28;96564;-35
2021/12/02 01:00:57;;;;;;;1.02;0.10;;;;;;;4.84;83.01;100080.41;4993811;28;96794;-34
2021/12/02 01:03:24;;;;;;;0.00;0.00;;;;;;;4.79;82.84;100071.72;4992321;28;101540;-34
2021/12/02 01:05:50;;;;;;;3.95;0.43;;;;;;;4.75;82.83;100069.25;4993927;28;97825;-34
2021/12/02 01:08:15;;;;;;;0.00;0.00;;;;;;;4.81;82.71;100076.97;4994311;28;96570;-34
2021/12/02 01:10:41;;;;;;;0.00;0.00;;;;;;;4.84;83.21;100087.59;4994420;28;96839;-34
2021/12/02 01:13:07;;;;;;;2.95;0.10;;;;;;;4.74;83.13;100079.09;4995617;28;97430;-35
2021/12/02 01:15:32;;;;;;;0.73;0.13;;;;;;;4.81;83.11;100085.03;4995038;28;123336;-35
2021/12/02 01:17:57;;;;;;;1.88;0.30;;;;;;;4.82;83.42;100094.84;4996908;28;96614;-34
2021/12/02 01:20:23;;;;;;;1.27;0.10;;;;;;;4.78;83.24;100085.19;4997690;28;96817;-35
2021/12/02 01:22:49;;;;;;;0.00;0.00;;;;;;;4.73;83.21;100088.09;4997045;28;104347;-34
2021/12/02 01:25:17;;;;;;;5.35;0.17;;;;;;;4.72;83.15;100086.38;4997089;28;98413;-35
2021/12/02 01:27:45;;;;;;;0.52;0.10;;;;;;;4.81;83.38;100103.81;4995971;28;96844;-35
2021/12/02 01:30:11;;;;;;;0.57;0.03;;;;;;;4.83;82.91;100101.91;4995981;28;96826;-35
2021/12/02 01:32:39;;;;;;;1.83;0.30;;;;;;;4.84;82.51;100114.41;4996775;28;99349;-35
2021/12/02 01:35:05;;;;;;;0.00;0.00;;;;;;;4.84;83.09;100115.28;4996034;28;100924;-34
2021/12/02 01:37:31;;;;;;;0.03;0.03;;;;;;;4.79;82.56;100090.50;4995709;28;96617;-35
2021/12/02 01:39:57;;;;;;;0.28;0.13;;;;;;;4.85;82.55;100090.16;4995721;28;96859;-35
2021/12/02 01:42:26;;;;;;;0.52;0.10;;;;;;;4.86;82.64;100097.28;4994946;28;100584;-35
2021/12/02 01:44:54;;;;;;;0.10;0.10;;;;;;;4.80;82.65;100091.34;4996557;28;97924;-35
2021/12/02 01:47:23;;;;;;;0.90;0.10;;;;;;;4.79;83.25;100090.50;4995668;28;96538;-34
2021/12/02 01:49:51;;;;;;;0.38;0.20;;;;;;;4.76;82.71;100085.25;4995792;28;96783;-35
2021/12/02 01:52:23;;;;;;;1.13;0.03;;;;;;;4.80;82.79;100086.00;4995321;28;100916;-35
2021/12/02 01:54:51;;;;;;;0.00;0.00;;;;;;;4.76;82.49;100093.31;4995050;28;100847;-34
2021/12/02 01:57:28;;;;;;;0.00;0.00;;;;;;;4.79;83.14;100089.59;4995519;28;96653;-35
2021/12/02 02:00:12;;;;;;;0.00;0.00;;;;;;;4.77;82.80;100092.38;4996704;28;96811;-34
2021/12/02 02:02:39;;;;;;;0.17;0.00;;;;;;;4.71;82.86;100081.06;4996659;28;97083;-34
2021/12/02 02:05:10;;;;;;;0.00;0.00;;;;;;;4.70;83.52;100071.31;4994982;28;100813;-35
2021/12/02 02:07:41;;;;;;;0.00;0.00;;;;;;;4.61;82.92;100068.13;4996350;28;96504;-34
2021/12/02 02:10:07;;;;;;;0.30;0.20;;;;;;;4.70;82.79;100090.09;4995387;28;96934;-35
2021/12/02 02:12:33;;;;;;;0.90;0.35;;;;;;;4.67;82.93;100074.97;4996207;28;99826;-35
2021/12/02 02:15:00;;;;;;;0.03;0.00;;;;;;;4.65;82.83;100077.75;4996234;28;99141;-35
2021/12/02 02:17:33;;;;;;;5.15;0.25;;;;;;;4.67;81.71;100110.75;4995182;28;96656;-34
2021/12/02 02:20:14;;;;;;;0.43;0.17;;;;;;;4.61;82.00;100096.75;4996587;28;96554;-34
2021/12/02 02:22:39;;;;;;;9.05;0.20;;;;;;;4.65;82.58;100111.75;4996032;28;98020;-35
2021/12/02 02:25:11;;;;;;;0.00;0.00;;;;;;;4.59;82.60;100104.88;4995966;28;97909;-35
2021/12/02 02:27:37;;;;;;;0.00;0.00;;;;;;;4.56;82.09;100115.75;4996205;28;96818;-35
2021/12/02 02:30:04;;;;;;;0.25;0.10;;;;;;;4.57;82.22;100121.97;4996619;28;96729;-35
2021/12/02 02:32:30;;;;;;;0.00;0.00;;;;;;;4.55;82.48;100105.94;4995431;28;99418;-35
2021/12/02 02:34:55;;;;;;;0.00;0.00;;;;;;;4.54;82.44;100106.91;4994573;28;101001;-34
2021/12/02 02:37:20;;;;;;;0.00;0.00;;;;;;;4.52;81.85;100100.75;4996471;28;96447;-35
2021/12/02 02:39:46;;;;;;;0.00;0.00;;;;;;;4.55;81.87;100102.41;4996368;28;96853;-35
2021/12/02 02:42:11;;;;;;;1.35;0.05;;;;;;;4.52;81.22;100108.78;4995814;28;99251;-34
2021/12/02 02:44:37;;;;;;;0.00;0.00;;;;;;;4.49;81.52;100108.94;4995837;28;97780;-35
2021/12/02 02:47:02;;;;;;;0.00;0.00;;;;;;;4.43;80.56;100115.50;4996280;28;96438;-35
2021/12/02 02:49:28;;;;;;;3.42;0.32;;;;;;;4.41;79.88;100117.38;4996585;28;96758;-34
2021/12/02 02:51:53;;;;;;;0.52;0.00;;;;;;;4.40;80.96;100112.06;4995648;28;99430;-35
2021/12/02 02:54:19;;;;;;;0.00;0.00;;;;;;;4.42;80.27;100120.91;4995688;28;97762;-35
2021/12/02 02:56:51;;;;;;;0.00;0.00;;;;;;;4.42;80.59;100123.59;4994159;28;96637;-34
2021/12/02 02:59:41;;;;;;;;;;;;;;;4.41;79.87;100125.41;4996018;28;96492;-35
2021/12/02 03:02:32;;;;;;;0.00;0.00;;;;;;;4.34;80.82;100115.94;4995514;28;99435;-34
2021/12/02 03:17:46;;;;;;;0.00;0.00;;;;;;;4.34;80.63;100128.44;4995807;28;96631;-34
2021/12/02 03:20:12;;;;;;;0.00;0.00;;;;;;;4.29;81.08;100114.38;4995845;28;96773;-34
2021/12/02 03:22:38;;;;;;;0.20;0.00;;;;;;;4.25;81.39;100113.69;4993451;28;100980;-35
2021/12/02 03:25:05;;;;;;;0.00;0.00;;;;;;;4.30;81.60;100119.69;4995003;28;97823;-35
2021/12/02 03:27:31;;;;;;;0.00;0.00;;;;;;;4.33;81.08;100116.84;4995262;28;96784;-35
2021/12/02 03:29:56;;;;;;;0.15;0.08;;;;;;;4.28;81.00;100121.56;4995580;28;96747;-35
2021/12/02 03:32:21;;;;;;;0.10;0.10;;;;;;;4.30;81.74;100126.88;4995153;28;97670;-35
2021/12/02 03:34:47;;;;;;;0.77;0.30;;;;;;;4.25;82.04;100132.44;4994553;28;111944;-35
2021/12/02 03:37:12;;;;;;;0.00;0.00;;;;;;;4.21;81.61;100125.47;4994626;28;96589;-34
2021/12/02 03:39:38;;;;;;;9.23;0.20;;;;;;;4.19;82.36;100138.94;4995657;28;96692;-35
2021/12/02 03:42:04;;;;;;;0.30;0.30;;;;;;;4.07;82.31;100110.03;4995104;28;97973;-34
2021/12/02 03:44:30;;;;;;;2.90;0.10;;;;;;;4.08;82.15;100116.28;4993392;28;100887;-35
2021/12/02 03:46:55;;;;;;;0.00;0.00;;;;;;;4.06;82.68;100121.72;4994860;28;96637;-35
2021/12/02 03:49:21;;;;;;;0.00;0.00;;;;;;;4.07;82.43;100142.19;4995294;28;96736;-35
2021/12/02 03:51:46;;;;;;;0.00;0.00;;;;;;;4.05;82.31;100157.47;4994882;28;97576;-34
2021/12/02 03:54:12;;;;;;;0.08;0.03;;;;;;;3.97;82.82;100144.44;4994884;28;97540;-34
2021/12/02 03:56:37;;;;;;;0.00;0.00;;;;;;;3.90;83.02;100148.34;4995316;28;96651;-35
2021/12/02 03:59:03;;;;;;;0.00;0.00;;;;;;;3.94;83.39;100146.41;4995143;28;96889;-35
2021/12/02 04:01:28;;;;;;;0.17;0.05;;;;;;;3.97;83.25;100146.25;4992933;28;100756;-35
2021/12/02 04:03:54;;;;;;;3.83;0.30;;;;;;;4.01;82.87;100146.03;4995004;28;97295;-35
2021/12/02 04:06:20;;;;;;;0.50;0.15;;;;;;;4.01;83.54;100129.09;4995178;28;96497;-35
2021/12/02 04:09:11;;;;;;;0.00;0.00;;;;;;;4.04;83.73;100126.28;4993363;28;96797;-35
2021/12/02 04:14:18;;;;;;;0.00;0.00;;;;;;;4.07;83.29;100142.19;4994585;28;97791;-35
2021/12/02 04:16:52;;;;;;;0.53;0.23;;;;;;;4.09;82.96;100142.13;4995197;28;96772;-34
2021/12/02 04:19:19;;;;;;;0.20;0.20;;;;;;;4.02;83.01;100138.88;4993314;28;96932;-35
2021/12/02 04:21:44;;;;;;;0.00;0.00;;;;;;;4.11;83.56;100141.13;4992963;28;100823;-34
2021/12/02 04:24:10;;;;;;;0.30;0.08;;;;;;;4.11;83.53;100126.84;4994568;28;97356;-34
2021/12/02 04:26:35;;;;;;;0.03;0.03;;;;;;;4.15;83.50;100142.72;4994770;28;96863;-35
2021/12/02 04:29:01;;;;;;;0.00;0.00;;;;;;;4.14;83.67;100145.47;4995232;28;96732;-35
2021/12/02 04:31:26;;;;;;;0.00;0.00;;;;;;;4.13;84.00;100152.66;4992914;28;116194;-35
2021/12/02 04:33:51;;;;;;;0.00;0.00;;;;;;;4.10;83.77;100152.81;4994188;28;99510;-34
2021/12/02 04:36:17;;;;;;;0.00;0.00;;;;;;;4.00;83.66;100154.13;4993463;28;108968;-35
2021/12/02 04:38:42;;;;;;;0.00;0.00;;;;;;;3.87;82.95;100144.94;4994429;28;96771;-35
2021/12/02 04:41:07;;;;;;;0.00;0.00;;;;;;;3.79;83.12;100139.91;4994379;28;97842;-34
2021/12/02 04:43:33;;;;;;;0.03;0.03;;;;;;;3.75;83.59;100143.69;4991789;28;127054;-34
2021/12/02 04:45:58;;;;;;;0.00;0.00;;;;;;;3.69;83.57;100125.19;4994413;28;97509;-34
2021/12/02 04:48:24;;;;;;;0.00;0.00;;;;;;;3.72;83.33;100141.13;4996415;28;96757;-35
2021/12/02 04:50:50;;;;;;;0.05;0.00;;;;;;;3.69;82.90;100143.94;4997106;28;116254;-34
2021/12/02 04:53:15;;;;;;;0.00;0.00;;;;;;;3.65;83.09;100145.91;4996125;28;101039;-35
2021/12/02 04:55:41;;;;;;;0.45;0.08;;;;;;;3.66;82.97;100147.63;4998113;28;96605;-34
2021/12/02 04:58:06;;;;;;;0.00;0.00;;;;;;;3.65;82.87;100135.19;4997988;28;96719;-34
2021/12/02 05:00:32;;;;;;;0.00;0.00;;;;;;;3.69;82.67;100135.91;4996624;28;97930;-34
2021/12/02 05:02:57;;;;;;;0.00;0.00;;;;;;;3.70;82.96;100141.19;4997409;28;98484;-34
2021/12/02 05:05:23;;;;;;;0.00;0.00;;;;;;;3.72;82.72;100139.34;4997704;28;96462;-35
2021/12/02 05:07:52;;;;;;;0.00;0.00;;;;;;;3.74;82.74;100141.91;4997905;28;96740;-35
2021/12/02 05:10:17;;;;;;;0.05;0.05;;;;;;;3.74;82.58;100149.97;4996541;28;100923;-35
2021/12/02 05:12:43;;;;;;;0.00;0.00;;;;;;;3.73;82.74;100153.59;4995272;28;116544;-35
2021/12/02 05:15:08;;;;;;;0.10;0.10;;;;;;;3.72;82.90;100151.81;4998782;28;96626;-35
2021/12/02 05:17:34;;;;;;;0.17;0.10;;;;;;;3.77;82.94;100148.03;4996193;28;96855;-35
2021/12/02 05:19:59;;;;;;;0.00;0.00;;;;;;;3.77;82.46;100150.72;4996401;28;115412;-34
2021/12/02 05:22:33;;;;;;;0.00;0.00;;;;;;;3.76;82.93;100151.63;4996332;28;122261;-35
2021/12/02 05:24:59;;;;;;;1.10;0.30;;;;;;;3.74;82.92;100149.97;4996942;28;96472;-34
2021/12/02 05:27:24;;;;;;;0.00;0.00;;;;;;;3.69;82.69;100147.47;4997246;28;96876;-35
2021/12/02 05:29:50;;;;;;;0.00;0.00;;;;;;;3.73;82.93;100154.44;4995936;28;97947;-35
2021/12/02 05:32:15;;;;;;;0.00;0.00;;;;;;;3.76;82.93;100154.31;4996955;28;97788;-35
2021/12/02 05:34:40;;;;;;;0.10;0.00;;;;;;;3.77;82.54;100148.03;4996936;28;102725;-35
2021/12/02 05:37:06;;;;;;;0.20;0.00;;;;;;;3.75;82.92;100139.19;4997392;28;96766;-35
2021/12/02 05:39:31;;;;;;;0.88;0.65;;;;;;;3.82;82.67;100145.16;4996619;28;99896;-35
2021/12/02 05:41:57;;;;;;;0.47;0.22;;;;;;;3.80;83.11;100150.56;4997162;28;97886;-35
2021/12/02 05:44:23;;;;;;;0.00;0.00;;;;;;;3.81;83.47;100155.00;4995595;28;96534;-35
2021/12/02 05:46:49;;;;;;;7.03;0.15;;;;;;;3.66;82.38;100147.63;4995606;28;96864;-35
2021/12/02 05:49:14;;;;;;;1.00;0.15;;;;;;;3.70;82.66;100151.91;4994915;28;100901;-34
2021/12/02 05:51:42;;;;;;;0.35;0.20;;;;;;;3.67;82.72;100146.72;4996259;28;116571;-35
2021/12/02 05:54:09;;;;;;;0.17;0.10;;;;;;;3.71;82.80;100159.00;4995275;28;96544;-35
2021/12/02 05:56:34;;;;;;;1.33;0.05;;;;;;;3.74;82.81;100158.88;4995465;28;96805;-34
2021/12/02 05:59:00;;;;;;;0.00;0.00;;;;;;;3.77;82.64;100157.88;4995803;28;98010;-35
2021/12/02 06:01:31;;;;;;;3.05;0.32;;;;;;;3.83;82.16;100168.28;4996155;28;97815;-35
2021/12/02 06:03:58;;;;;;;0.00;0.00;;;;;;;3.80;81.74;100161.28;4996719;28;96407;-34
2021/12/02 06:06:25;;;;;;;3.63;0.35;;;;;;;3.81;81.55;100149.63;4996584;28;101089;-34
2021/12/02 06:08:51;;;;;;;0.20;0.10;;;;;;;3.85;78.92;100169.09;4996524;28;97899;-34
2021/12/02 06:11:16;;;;;;;1.85;0.22;;;;;;;3.87;79.53;100177.94;4995729;28;117712;-35
2021/12/02 06:13:42;;;;;;;0.13;0.05;;;;;;;3.82;79.65;100188.88;4996295;28;96589;-35
2021/12/02 06:16:08;;;;;;;1.50;0.03;;;;;;;3.70;80.53;100189.41;4996628;28;96714;-35
2021/12/02 06:18:39;;;;;;;2.80;0.20;;;;;;;3.68;81.39;100195.78;4994842;28;101197;-35
2021/12/02 06:21:05;;;;;;;0.15;0.15;;;;;;;3.67;81.85;100196.69;4996444;28;97824;-34
2021/12/02 06:23:30;;;;;;;0.08;0.03;;;;;;;3.67;81.54;100219.00;4996709;28;96641;-35
2021/12/02 06:25:55;;;;;;;0.00;0.00;;;;;;;3.70;81.87;100221.56;4996254;28;96526;-35
2021/12/02 06:28:21;;;;;;;0.10;0.10;;;;;;;3.73;81.92;100217.88;4995729;28;99359;-34
2021/12/02 06:30:46;;;;;;;0.10;0.05;;;;;;;3.68;82.01;100222.56;4996478;28;98075;-35
2021/12/02 06:33:12;;;;;;;0.57;0.22;;;;;;;3.68;81.67;100226.09;4995754;28;109967;-35
2021/12/02 06:35:39;;;;;;;1.13;0.20;;;;;;;3.62;81.72;100218.31;4995042;28;96858;-35
2021/12/02 06:38:04;;;;;;;0.20;0.13;;;;;;;3.60;81.37;100209.50;4995546;28;97931;-35
2021/12/02 06:40:31;;;;;;;0.00;0.00;;;;;;;3.61;81.87;100212.09;4994453;28;99347;-34
2021/12/02 06:42:57;;;;;;;3.08;0.20;;;;;;;3.60;81.68;100209.50;4994671;28;96752;-35
2021/12/02 06:45:22;;;;;;;0.03;0.03;;;;;;;3.53;81.77;100198.19;4996223;28;96733;-35
2021/12/02 06:47:48;;;;;;;1.15;0.32;;;;;;;3.50;81.76;100192.06;4995926;28;102613;-35
2021/12/02 06:50:19;;;;;;;0.15;0.10;;;;;;;3.58;81.86;100200.66;4994341;28;101321;-35
2021/12/02 06:52:49;;;;;;;0.27;0.20;;;;;;;3.51;81.47;100193.84;4994589;28;96635;-35
2021/12/02 06:55:15;;;;;;;0.00;0.00;;;;;;;3.48;81.45;100194.84;4996023;28;96724;-35
2021/12/02 06:57:41;;;;;;;0.15;0.10;;;;;;;3.48;81.35;100204.66;4994341;28;101168;-35
2021/12/02 07:00:09;;;;;;;9.75;0.20;;;;;;;3.49;81.41;100212.63;4995162;28;99790;-35
2021/12/02 07:02:48;;;;;;;0.00;0.00;;;;;;;3.42;81.30;100205.78;4994051;28;96614;-35
2021/12/02 07:05:16;;;;;;;2.15;0.15;;;;;;;3.44;81.52;100211.09;4994396;28;96942;-35
2021/12/02 07:07:42;;;;;;;0.00;0.00;;;;;;;3.51;81.46;100223.28;4994098;28;100912;-35
2021/12/02 07:10:10;;;;;;;0.00;0.00;;;;;;;3.48;81.47;100223.38;4995172;28;99194;-35
2021/12/02 07:12:38;;;;;;;7.28;0.65;;;;;;;3.49;81.18;100217.97;4994363;28;96631;-35
2021/12/02 07:15:14;;;;;;;2.28;0.57;;;;;;;3.49;81.06;100220.66;4994283;28;96734;-34
2021/12/02 07:17:39;;;;;;;1.27;0.22;;;;;;;3.48;81.64;100210.00;4995614;28;98002;-34
2021/12/02 07:20:05;;;;;;;0.20;0.10;;;;;;;3.55;81.19;100227.53;4995815;28;97751;-35
2021/12/02 07:22:30;;;;;;;0.20;0.10;;;;;;;3.53;81.25;100224.09;4993921;28;96571;-35
2021/12/02 07:24:56;;;;;;;0.25;0.17;;;;;;;3.48;80.33;100218.03;4995695;28;96814;-35
2021/12/02 07:27:21;;;;;;;2.60;0.08;;;;;;;3.49;81.23;100227.81;4994594;28;97502;-35
2021/12/02 07:29:47;;;;;;;0.47;0.20;;;;;;;3.51;81.16;100237.53;4995279;28;97748;-35
2021/12/02 07:32:12;;;;;;;0.00;0.00;;;;;;;3.54;81.27;100255.28;4995639;28;96473;-35
2021/12/02 07:34:43;;;;;;;1.40;0.20;;;;;;;3.55;81.56;100248.97;4995542;28;96662;-35
2021/12/02 07:37:16;;;;;;;0.15;0.15;;;;;;;3.50;81.49;100241.13;4993349;28;101664;-35
2021/12/02 07:39:41;;;;;;;;;;;;;;;3.58;81.61;100249.72;4994132;28;101103;-35
2021/12/02 07:42:07;;;;;;;0.13;0.13;;;;;;;3.57;81.60;100237.25;4993960;28;96630;-35
2021/12/02 07:44:36;;;;;;;0.00;0.00;;;;;;;3.52;81.48;100241.94;4995418;28;96931;-35
2021/12/02 07:47:05;;;;;;;0.65;0.43;;;;;;;3.48;80.93;100243.03;4977041;28;100836;-35
2021/12/02 07:49:31;;;;;;;1.70;0.28;;;;;;;3.60;81.30;100273.78;4993427;28;100898;-35
2021/12/02 07:52:01;;;;;;;1.20;0.68;;;;;;;3.56;81.21;100264.97;4993316;28;96476;-35
2021/12/02 07:54:27;;;;;;;2.58;1.63;;;;;;;3.57;81.17;100284.59;4993358;28;96894;-35
2021/12/02 07:56:53;;;;;;;0.00;0.00;;;;;;;3.51;80.56;100279.50;4993482;28;101221;-35
2021/12/02 07:59:19;;;;;;;5.18;0.43;;;;;;;3.53;80.71;100286.53;4992890;28;100867;-34
2021/12/02 08:01:46;;;;;;;1.45;0.20;;;;;;;3.48;80.86;100290.31;4993307;28;96802;-35
2021/12/02 08:04:11;;;;;;;0.00;0.00;;;;;;;3.51;81.20;100293.75;4994632;28;96723;-35
2021/12/02 08:06:37;;;;;;;0.00;0.00;;;;;;;3.50;81.31;100288.47;4994547;28;102849;-34
2021/12/02 08:09:03;;;;;;;7.68;0.45;;;;;;;3.49;81.17;100295.63;4994095;28;119979;-35
2021/12/02 08:11:28;;;;;;;0.00;0.00;;;;;;;3.39;80.90;100289.78;4993577;28;96650;-35
2021/12/02 08:13:56;;;;;;;0.10;0.00;;;;;;;3.47;81.23;100301.97;4995035;28;96811;-35
2021/12/02 08:16:21;;;;;;;0.47;0.20;;;;;;;3.45;81.06;100296.69;4992671;28;99770;-35
2021/12/02 08:18:47;;;;;;;0.10;0.08;;;;;;;3.47;80.52;100310.00;4994383;28;97845;-35
2021/12/02 08:21:12;;;;;;;0.52;0.30;;;;;;;3.44;80.64;100327.06;4994574;28;96459;-34
2021/12/02 08:23:37;;;;;;;0.00;0.00;;;;;;;3.44;81.11;100334.25;4994106;28;96788;-35
2021/12/02 08:26:03;;;;;;;0.00;0.00;;;;;;;3.34;80.19;100334.59;4994031;28;105002;-35
2021/12/02 08:28:34;;;;;;;0.00;0.00;;;;;;;3.34;80.84;100337.28;4994498;28;97820;-35
2021/12/02 08:30:59;;;;;;;0.10;0.10;;;;;;;3.31;81.28;100340.09;4994348;28;100134;-35
2021/12/02 08:33:25;;;;;;;0.68;0.32;;;;;;;3.34;80.82;100339.97;4995303;28;96817;-34
2021/12/02 08:35:50;;;;;;;0.15;0.05;;;;;;;3.33;81.66;100345.38;4994276;28;98079;-35
2021/12/02 08:38:18;;;;;;;0.75;0.30;;;;;;;3.39;81.49;100340.63;4993838;28;113937;-34
2021/12/02 08:40:47;;;;;;;0.10;0.10;;;;;;;3.48;81.76;100346.53;4994012;28;96747;-35
2021/12/02 08:43:13;;;;;;;0.00;0.00;;;;;;;3.53;81.14;100347.25;4993009;28;96800;-35
2021/12/02 08:45:41;;;;;;;0.00;0.00;;;;;;;3.51;81.29;100341.09;4992626;28;100889;-35
2021/12/02 08:48:07;;;;;;;0.20;0.13;;;;;;;3.57;81.19;100360.44;4992592;28;101190;-35
2021/12/02 08:50:34;;;;;;;1.13;0.25;;;;;;;3.59;80.70;100357.69;4994575;28;96628;-34
2021/12/02 08:53:01;;;;;;;0.47;0.20;;;;;;;3.58;81.17;100351.47;4976607;28;96786;-35
2021/12/02 08:55:29;;;;;;;0.20;0.20;;;;;;;3.51;81.14;100352.66;4992264;28;100892;-34
2021/12/02 08:57:55;;;;;;;0.15;0.10;;;;;;;3.54;81.17;100354.34;4994293;28;97833;-35
2021/12/02 09:00:27;;;;;;;0.28;0.17;;;;;;;3.51;80.96;100358.00;4993731;28;96684;-34
2021/12/02 09:02:54;;;;;;;3.65;0.38;;;;;;;3.48;81.40;100355.47;4994450;28;96560;-34
2021/12/02 09:05:19;;;;;;;1.35;0.50;;;;;;;3.53;81.48;100371.34;4991941;28;101312;-35
2021/12/02 09:07:45;;;;;;;0.20;0.20;;;;;;;3.53;81.59;100374.91;4993939;28;97766;-35
2021/12/02 09:10:11;;;;;;;0.15;0.05;;;;;;;3.51;81.83;100370.53;4994070;28;96605;-35
2021/12/02 09:12:36;;;;;;;3.13;0.80;;;;;;;3.52;80.93;100377.63;4994190;28;96733;-34
2021/12/02 09:15:04;;;;;;;0.00;0.00;;;;;;;3.47;81.24;100375.13;4992283;28;100784;-34
2021/12/02 09:17:29;;;;;;;0.73;0.45;;;;;;;3.49;81.22;100381.31;4992435;28;102747;-35
2021/12/02 09:19:55;;;;;;;0.13;0.10;;;;;;;3.47;81.21;100363.56;4993567;28;106000;-35
2021/12/02 09:22:21;;;;;;;0.20;0.10;;;;;;;3.54;81.09;100381.97;4994577;28;96762;-35
2021/12/02 09:24:46;;;;;;;0.00;0.00;;;;;;;3.60;80.60;100387.09;4992476;28;97896;-34
2021/12/02 09:27:11;;;;;;;0.00;0.00;;;;;;;3.61;80.87;100382.63;4992908;28;120688;-35
2021/12/02 09:29:37;;;;;;;0.05;0.05;;;;;;;3.62;80.85;100384.34;4993425;28;96625;-35
2021/12/02 09:32:03;;;;;;;0.80;0.22;;;;;;;3.69;80.83;100388.50;4993922;28;96415;-35
2021/12/02 09:34:30;;;;;;;0.00;0.00;;;;;;;3.76;81.04;100386.47;4994100;28;97728;-34
2021/12/02 09:36:56;;;;;;;1.02;0.63;;;;;;;3.77;80.89;100383.75;4995599;28;100657;-34
2021/12/02 09:39:28;;;;;;;0.00;0.00;;;;;;;3.90;81.02;100413.56;4995949;28;96735;-35
2021/12/02 09:41:53;;;;;;;1.45;0.38;;;;;;;3.89;80.82;100413.66;4997347;28;96814;-35
2021/12/02 09:44:19;;;;;;;0.38;0.30;;;;;;;3.98;81.11;100413.25;4996607;28;97813;-35
2021/12/02 09:46:44;;;;;;;0.00;0.00;;;;;;;4.09;80.65;100413.66;4996792;28;108094;-35
2021/12/02 09:49:12;;;;;;;0.57;0.13;;;;;;;4.15;80.72;100420.59;4996948;28;96652;-35
2021/12/02 09:56:59;;;;;;;3.08;0.10;;;;;;;4.54;79.92;100444.81;4996735;28;97716;-35
2021/12/02 10:01:59;;;;;;;0.35;0.22;;;;;;;4.62;79.26;100456.13;4996795;28;96781;-35
2021/12/02 10:04:26;;;;;;;0.00;0.00;;;;;;;4.54;79.10;100443.97;4996241;28;99534;-35
2021/12/02 10:07:17;;;;;;;5.63;0.40;;;;;;;4.53;79.97;100453.81;4996752;28;96591;-35
2021/12/02 10:10:15;;;;;;;1.20;0.15;;;;;;;4.38;79.37;100449.97;4995461;28;96669;-35
2021/12/02 10:13:18;;;;;;;0.00;0.00;;;;;;;4.37;79.56;100458.09;4995626;28;96721;-35
2021/12/02 10:15:53;;;;;;;0.10;0.10;;;;;;;4.35;79.94;100454.59;4996418;28;97745;-35
2021/12/02 10:18:34;;;;;;;0.73;0.15;;;;;;;4.36;79.61;100445.59;4994923;28;100919;-35
2021/12/02 10:21:16;;;;;;;0.00;0.00;;;;;;;4.50;79.52;100450.38;4994809;28;96662;-34
2021/12/02 10:23:46;;;;;;;0.05;0.05;;;;;;;4.56;79.41;100456.38;4995095;28;96579;-34
2021/12/02 10:26:13;;;;;;;0.20;0.10;;;;;;;4.60;79.65;100462.44;4994356;28;101374;-35
2021/12/02 10:28:42;;;;;;;0.00;0.00;;;;;;;4.57;79.70;100468.81;4994783;28;99052;-35
2021/12/02 10:31:09;;;;;;;0.05;0.05;;;;;;;4.53;79.79;100480.66;4995135;28;96736;-35
2021/12/02 10:33:46;;;;;;;0.28;0.25;;;;;;;4.53;80.12;100495.84;4994893;28;96791;-35
2021/12/02 10:36:42;;;;;;;0.35;0.10;;;;;;;4.37;80.57;100501.00;4995979;28;97990;-35
2021/12/02 10:39:18;;;;;;;0.25;0.20;;;;;;;4.21;80.24;100515.00;4995034;28;100701;-35
2021/12/02 10:41:46;;;;;;;0.00;0.00;;;;;;;3.99;80.51;100519.50;4994752;28;97147;-35
2021/12/02 10:44:24;;;;;;;0.00;0.00;;;;;;;3.82;80.94;100536.25;4994749;28;96834;-35
2021/12/02 10:47:09;;;;;;;0.98;0.30;;;;;;;3.74;81.59;100531.19;4993309;28;101240;-35
2021/12/02 10:49:39;;;;;;;0.00;0.00;;;;;;;3.75;81.95;100535.59;4994541;28;100940;-35
2021/12/02 10:52:06;;;;;;;3.10;0.10;;;;;;;3.66;81.91;100544.00;4994764;28;96602;-35
2021/12/02 10:54:38;;;;;;;3.50;0.30;;;;;;;3.68;82.26;100546.63;4994366;28;96903;-34
2021/12/02 10:57:17;;;;;;;0.00;0.00;;;;;;;3.61;82.28;100560.22;4994225;28;100666;-35
2021/12/02 10:59:51;;;;;;;0.10;0.05;;;;;;;3.62;82.18;100590.56;4995125;28;99114;-35
2021/12/02 11:02:32;;;;;;;1.60;0.15;;;;;;;3.54;82.13;100603.38;4996061;28;96533;-35
2021/12/02 11:05:03;;;;;;;0.15;0.10;;;;;;;3.28;82.40;100575.72;4994826;28;96699;-34
2021/12/02 11:07:40;;;;;;;0.10;0.10;;;;;;;3.06;83.35;100597.03;4993959;28;101341;-35
2021/12/02 11:10:12;;;;;;;0.10;0.00;;;;;;;2.95;83.60;100605.41;4994078;28;101652;-35
2021/12/02 11:12:39;;;;;;;;;;;;;;;2.98;83.37;100607.13;4994657;28;96747;-35
2021/12/02 11:15:15;;;;;;;0.15;0.10;;;;;;;2.97;83.58;100600.00;4995911;28;96730;-34
2021/12/02 11:17:50;;;;;;;0.25;0.13;;;;;;;2.89;83.74;100572.66;4993961;28;100982;-35
2021/12/02 11:20:19;;;;;;;0.00;0.00;;;;;;;2.76;83.35;100546.34;4995299;28;97808;-35
2021/12/02 11:22:45;;;;;;;0.00;0.00;;;;;;;2.82;83.71;100547.91;4994193;28;96667;-35
2021/12/02 11:25:12;;;;;;;2.28;0.22;;;;;;;2.92;84.22;100553.81;4994002;28;96799;-35
2021/12/02 11:27:42;;;;;;;0.15;0.10;;;;;;;3.00;83.99;100546.38;4993520;28;101311;-35
2021/12/02 11:30:14;;;;;;;0.00;0.00;;;;;;;3.04;84.14;100542.69;4995593;28;98081;-34
2021/12/02 11:32:48;;;;;;;0.00;0.00;;;;;;;3.12;83.88;100537.06;4995600;28;96760;-35
2021/12/02 11:35:19;;;;;;;0.00;0.00;;;;;;;3.18;83.90;100526.16;4994106;28;97021;-35
2021/12/02 11:37:47;;;;;;;2.28;0.22;;;;;;;3.23;83.62;100516.13;4994542;28;99282;-35
2021/12/02 11:40:23;;;;;;;0.00;0.00;;;;;;;3.27;83.60;100517.78;4993660;28;101282;-35
2021/12/02 11:42:50;;;;;;;0.00;0.00;;;;;;;3.31;83.59;100522.09;4995434;28;96558;-35
2021/12/02 11:45:17;;;;;;;0.00;0.00;;;;;;;3.36;83.75;100533.50;4993698;28;96859;-35
2021/12/02 11:47:43;;;;;;;0.00;0.00;;;;;;;3.37;84.00;100526.34;4993443;28;101374;-35
2021/12/02 11:50:10;;;;;;;1.45;0.10;;;;;;;3.43;83.93;100525.22;4993515;28;101031;-35
2021/12/02 11:52:38;;;;;;;0.00;0.00;;;;;;;3.44;83.66;100530.53;4995416;28;96773;-35
2021/12/02 11:55:07;;;;;;;0.20;0.15;;;;;;;3.42;83.68;100519.00;4977582;28;96914;-35
2021/12/02 11:57:33;;;;;;;0.10;0.10;;;;;;;3.47;83.55;100534.91;4993626;28;99515;-35
2021/12/02 12:00:00;;;;;;;0.05;0.00;;;;;;;3.50;83.99;100548.16;4992928;28;101293;-35